Time;durP1;ratioP1;P1;durP2;ratioP2;P2;SDS_P1;SDS_P2;PMS_P1;PMS_P2;Temp;Humidity;BMP_temperature;BMP_pressure;BME280_temperature;BME280_humidity;BME280_pressure;Samples;Min_cycle;Max_cycle;Signal;HPM_P1;HPM_P2
2022/03/13 00:02:24;;;;;;;;;11.75;11.75;;;;;-146.03;100.00;60875.16;4992047;28;45462;-96
2022/03/13 00:04:50;;;;;;;;;13.50;11.75;;;;;-146.03;100.00;60875.16;5013744;28;46452;-93
2022/03/13 00:07:21;;;;;;;;;7.75;7.75;;;;;-146.03;100.00;60875.16;4999875;28;45856;-91
2022/03/13 00:09:51;;;;;;;;;6.75;6.75;;;;;-146.03;100.00;60875.16;5001159;28;45551;-89
2022/03/13 00:12:26;;;;;;;;;8.00;7.75;;;;;-146.03;100.00;60875.16;4993014;28;45528;-90
2022/03/13 00:14:55;;;;;;;;;8.50;7.50;;;;;-146.03;100.00;60875.16;4995153;28;47611;-88
2022/03/13 00:17:21;;;;;;;;;8.00;8.00;;;;;-146.03;100.00;60875.16;5015523;28;45591;-89
2022/03/13 00:19:49;;;;;;;;;7.00;6.50;;;;;-146.03;100.00;60875.16;5015198;28;45352;-91
2022/03/13 00:22:20;;;;;;;;;16.00;13.00;;;;;-146.03;100.00;60875.16;4992312;28;45371;-86
2022/03/13 00:24:46;;;;;;;;;13.75;13.75;;;;;-146.03;100.00;60875.16;5010087;28;46778;-90
2022/03/13 00:27:11;;;;;;;;;10.25;7.25;;;;;-146.03;100.00;60875.16;5011026;28;52165;-87
2022/03/13 00:29:37;;;;;;;;;9.00;7.00;;;;;-146.03;100.00;60875.16;5012666;28;45489;-88
2022/03/13 00:32:03;;;;;;;;;4.75;4.75;;;;;-146.03;100.00;60875.16;5015578;28;45704;-84
2022/03/13 00:34:28;;;;;;;;;8.00;6.75;;;;;-146.03;100.00;60875.16;5013118;28;45799;-87
2022/03/13 00:36:54;;;;;;;;;7.75;6.50;;;;;-146.03;100.00;60875.16;5011281;28;45437;-88
2022/03/13 00:39:19;;;;;;;;;8.00;8.00;;;;;-146.03;100.00;60875.16;5008303;28;45801;-87
2022/03/13 00:41:45;;;;;;;;;5.00;5.00;;;;;-146.03;100.00;60875.16;5010192;28;45409;-88
2022/03/13 00:44:10;;;;;;;;;8.00;8.00;;;;;-146.03;100.00;60875.16;5008117;28;45503;-88
2022/03/13 00:46:36;;;;;;;;;8.50;7.00;;;;;-146.03;100.00;60875.16;5006568;28;45598;-90
2022/03/13 00:49:01;;;;;;;;;10.00;8.00;;;;;-146.03;100.00;60875.16;5008767;28;45562;-90
2022/03/13 00:51:27;;;;;;;;;8.00;8.00;;;;;-146.03;100.00;60875.16;5007827;28;45485;-89
2022/03/13 00:53:52;;;;;;;;;10.00;8.00;;;;;-146.03;100.00;60875.16;5014025;28;47592;-89
2022/03/13 00:56:18;;;;;;;;;7.25;6.75;;;;;-146.03;100.00;60875.16;4996130;28;45428;-91
2022/03/13 00:58:43;;;;;;;;;8.00;8.00;;;;;-146.03;100.00;60875.16;5009767;28;45511;-92
2022/03/13 01:01:10;;;;;;;;;7.00;5.75;;;;;-146.03;100.00;60875.16;5012249;28;45832;-91
2022/03/13 01:03:35;;;;;;;;;7.50;7.50;;;;;-146.03;100.00;60875.16;5012737;28;45410;-90
2022/03/13 01:06:02;;;;;;;;;11.00;7.00;;;;;-146.03;100.00;60875.16;5010699;28;45512;-90
2022/03/13 01:08:29;;;;;;;;;6.75;6.75;;;;;-146.03;100.00;60875.16;5012300;28;46394;-90
2022/03/13 01:10:55;;;;;;;;;11.25;8.00;;;;;-146.03;100.00;60875.16;4983202;28;45434;-90
2022/03/13 01:13:22;;;;;;;;;7.50;5.50;;;;;-146.03;100.00;60875.16;5009138;28;46211;-90
2022/03/13 01:15:49;;;;;;;;;5.00;5.00;;;;;-146.03;100.00;60875.16;5010661;28;45705;-90
2022/03/13 01:18:16;;;;;;;;;8.00;7.00;;;;;-146.03;100.00;60875.16;5008488;28;45789;-91
2022/03/13 01:20:45;;;;;;;;;9.00;9.00;;;;;-146.03;100.00;60875.16;5007945;28;45545;-90
2022/03/13 01:23:11;;;;;;;;;7.50;7.50;;;;;-146.03;100.00;60875.16;5012666;28;45560;-87
2022/03/13 01:25:37;;;;;;;;;6.00;6.00;;;;;-146.03;100.00;60875.16;5013125;28;45511;-89
2022/03/13 01:28:03;;;;;;;;;8.00;6.75;;;;;-146.03;100.00;60875.16;5010256;28;46113;-89
2022/03/13 01:30:28;;;;;;;;;6.75;6.50;;;;;-146.03;100.00;60875.16;5011602;28;45442;-89
2022/03/13 01:32:54;;;;;;;;;7.75;6.75;;;;;-146.03;100.00;60875.16;5012564;28;45386;-90
2022/03/13 01:35:21;;;;;;;;;8.75;8.75;;;;;-146.03;100.00;60875.16;5011861;28;45512;-90
2022/03/13 01:37:46;;;;;;;;;8.75;7.00;;;;;-146.03;100.00;60875.16;5012815;28;45403;-89
2022/03/13 01:40:14;;;;;;;;;6.50;6.25;;;;;-146.03;100.00;60875.16;5010710;28;45488;-89
2022/03/13 01:42:40;;;;;;;;;8.00;6.75;;;;;-146.03;100.00;60875.16;5011637;28;45979;-90
2022/03/13 01:45:10;;;;;;;;;5.50;5.50;;;;;-146.03;100.00;60875.16;5011917;28;45485;-90
2022/03/13 01:47:36;;;;;;;;;7.25;7.25;;;;;-146.03;100.00;60875.16;5002079;28;45368;-89
2022/03/13 01:50:02;;;;;;;;;6.00;6.00;;;;;-146.03;100.00;60875.16;4996244;28;45403;-90
2022/03/13 01:52:28;;;;;;;;;4.75;4.75;;;;;-146.03;100.00;60875.16;5010525;28;46010;-89
2022/03/13 01:54:55;;;;;;;;;8.50;7.00;;;;;-146.03;100.00;60875.16;5007824;28;48804;-89
2022/03/13 01:57:22;;;;;;;;;6.00;5.00;;;;;-146.03;100.00;60875.16;5010334;28;45296;-89
2022/03/13 01:59:50;;;;;;;;;7.50;6.00;;;;;-146.03;100.00;60875.16;5007981;28;45560;-88
2022/03/13 02:02:16;;;;;;;;;6.25;6.25;;;;;-146.03;100.00;60875.16;5010834;28;46548;-89
2022/03/13 02:04:42;;;;;;;;;9.00;7.00;;;;;-146.03;100.00;60875.16;4995722;28;45515;-88
2022/03/13 02:07:07;;;;;;;;;9.50;7.00;;;;;-146.03;100.00;60875.16;5007340;28;45514;-88
2022/03/13 02:09:34;;;;;;;;;8.25;6.75;;;;;-146.03;100.00;60875.16;5006419;28;45505;-88
2022/03/13 02:12:00;;;;;;;;;6.50;6.50;;;;;-146.03;100.00;60875.16;5009667;28;45417;-89
2022/03/13 02:14:26;;;;;;;;;6.75;6.75;;;;;-146.03;100.00;60875.16;5011667;28;45841;-89
2022/03/13 02:16:52;;;;;;;;;8.50;7.50;;;;;-146.03;100.00;60875.16;5012384;28;45247;-89
2022/03/13 02:19:18;;;;;;;;;9.00;8.00;;;;;-146.03;100.00;60875.16;5012995;28;45288;-88
2022/03/13 02:21:51;;;;;;;;;7.00;6.25;;;;;-146.03;100.00;60875.16;5008441;28;47293;-89
2022/03/13 02:24:21;;;;;;;;;6.25;6.25;;;;;-146.03;100.00;60875.16;5004314;28;45414;-89
2022/03/13 02:26:59;;;;;;;;;8.50;8.50;;;;;-146.03;100.00;60875.16;5010924;28;45551;-88
2022/03/13 02:29:24;;;;;;;;;9.00;9.00;;;;;-146.03;100.00;60875.16;5011592;28;45679;-88
2022/03/13 02:31:49;;;;;;;;;8.75;6.00;;;;;-146.03;100.00;60875.16;5008291;28;46049;-88
2022/03/13 02:34:16;;;;;;;;;9.50;8.50;;;;;-146.03;100.00;60875.16;5010629;28;46371;-88
2022/03/13 02:36:53;;;;;;;;;10.50;10.00;;;;;-146.03;100.00;60875.16;5007502;28;45507;-90
2022/03/13 02:39:19;;;;;;;;;8.00;8.00;;;;;-146.03;100.00;60875.16;5008309;28;45492;-89
2022/03/13 02:41:44;;;;;;;;;9.75;8.25;;;;;-146.03;100.00;60875.16;5012701;28;45572;-89
2022/03/13 02:44:14;;;;;;;;;10.50;9.50;;;;;-146.03;100.00;60875.16;4995640;28;45938;-89
2022/03/13 02:46:53;;;;;;;;;8.25;6.25;;;;;-146.03;100.00;60875.16;5009113;28;45461;-89
2022/03/13 02:49:22;;;;;;;;;7.00;7.00;;;;;-146.03;100.00;60875.16;5012120;28;45402;-90
2022/03/13 02:51:53;;;;;;;;;8.50;7.50;;;;;-146.03;100.00;60875.16;5012099;28;46798;-90
2022/03/13 02:54:19;;;;;;;;;8.25;8.25;;;;;-146.03;100.00;60875.16;5010984;28;45426;-90
2022/03/13 02:56:45;;;;;;;;;6.75;5.50;;;;;-146.03;100.00;60875.16;4995973;28;45498;-90
2022/03/13 02:59:12;;;;;;;;;9.00;7.00;;;;;-146.03;100.00;60875.16;4991901;28;45494;-91
2022/03/13 03:01:39;;;;;;;;;10.50;8.50;;;;;-146.03;100.00;60875.16;5014076;28;46078;-91
2022/03/13 03:04:05;;;;;;;;;9.00;8.00;;;;;-146.03;100.00;60875.16;5011469;28;45459;-90
2022/03/13 03:06:32;;;;;;;;;7.00;7.00;;;;;-146.03;100.00;60875.16;5011450;28;45406;-92
2022/03/13 03:09:03;;;;;;;;;8.00;8.00;;;;;-146.03;100.00;60875.16;5012276;28;46070;-92
2022/03/13 03:11:32;;;;;;;;;8.75;8.00;;;;;-146.03;100.00;60875.16;5009045;28;46454;-91
2022/03/13 03:13:58;;;;;;;;;9.25;8.25;;;;;-146.03;100.00;60875.16;5011917;28;45454;-90
2022/03/13 03:16:23;;;;;;;;;10.25;9.00;;;;;-146.03;100.00;60875.16;5012413;28;45732;-92
2022/03/13 03:18:48;;;;;;;;;8.25;8.00;;;;;-146.03;100.00;60875.16;5008142;28;45519;-90
2022/03/13 03:21:15;;;;;;;;;6.75;6.75;;;;;-146.03;100.00;60875.16;5003253;28;52823;-87
2022/03/13 03:23:40;;;;;;;;;9.00;9.00;;;;;-146.03;100.00;60875.16;5004842;28;45637;-87
2022/03/13 03:26:07;;;;;;;;;5.50;5.50;;;;;-146.03;100.00;60875.16;5004737;28;45528;-87
2022/03/13 03:28:34;;;;;;;;;8.75;7.00;;;;;-146.03;100.00;60875.16;5005911;28;45610;-87
2022/03/13 03:31:00;;;;;;;;;5.50;5.50;;;;;-146.03;100.00;60875.16;4989161;28;45387;-88
2022/03/13 03:33:25;;;;;;;;;9.00;7.50;;;;;-146.03;100.00;60875.16;5008419;28;45812;-87
2022/03/13 03:35:51;;;;;;;;;6.75;5.75;;;;;-146.03;100.00;60875.16;5008457;28;45310;-87
2022/03/13 03:38:16;;;;;;;;;8.00;8.00;;;;;-146.03;100.00;60875.16;5010192;28;45412;-88
2022/03/13 03:40:42;;;;;;;;;6.50;6.00;;;;;-146.03;100.00;60875.16;5008516;28;45956;-91
2022/03/13 03:43:07;;;;;;;;;7.25;7.25;;;;;-146.03;100.00;60875.16;5012117;28;45941;-88
2022/03/13 03:45:33;;;;;;;;;6.50;6.50;;;;;-146.03;100.00;60875.16;5008950;28;45407;-88
2022/03/13 03:47:59;;;;;;;;;6.50;6.25;;;;;-146.03;100.00;60875.16;5004986;28;48633;-88
2022/03/13 03:50:25;;;;;;;;;9.00;7.75;;;;;-146.03;100.00;60875.16;5003910;28;45391;-88
2022/03/13 03:52:55;;;;;;;;;8.00;8.00;;;;;-146.03;100.00;60875.16;5007893;28;45358;-89
2022/03/13 03:55:22;;;;;;;;;6.25;6.25;;;;;-146.03;100.00;60875.16;5002750;28;45441;-87
2022/03/13 03:57:47;;;;;;;;;7.00;7.00;;;;;-146.03;100.00;60875.16;5009576;28;45599;-89
2022/03/13 04:00:13;;;;;;;;;6.50;6.50;;;;;-146.03;100.00;60875.16;5007038;28;45560;-89
2022/03/13 04:02:39;;;;;;;;;6.75;6.75;;;;;-146.03;100.00;60875.16;5009398;28;46023;-90
2022/03/13 04:05:06;;;;;;;;;4.75;4.75;;;;;-146.03;100.00;60875.16;5006118;28;45449;-89
2022/03/13 04:07:38;;;;;;;;;6.25;5.00;;;;;-146.03;100.00;60875.16;5004929;28;45445;-90
2022/03/13 04:10:04;;;;;;;;;7.25;7.25;;;;;-146.03;100.00;60875.16;5015339;28;45657;-90
2022/03/13 04:12:30;;;;;;;;;5.50;5.50;;;;;-146.03;100.00;60875.16;5009223;28;45729;-91
2022/03/13 04:14:56;;;;;;;;;5.50;5.50;;;;;-146.03;100.00;60875.16;5014643;28;45670;-91
2022/03/13 04:17:22;;;;;;;;;7.25;7.25;;;;;-146.03;100.00;60875.16;5010625;28;45417;-91
2022/03/13 04:19:47;;;;;;;;;7.75;6.25;;;;;-146.03;100.00;60875.16;5009805;28;45425;-91
2022/03/13 04:22:14;;;;;;;;;8.75;7.00;;;;;-146.03;100.00;60875.16;5004909;28;45506;-91
2022/03/13 04:24:40;;;;;;;;;6.00;6.00;;;;;-146.03;100.00;60875.16;5010179;28;45551;-89
2022/03/13 04:27:05;;;;;;;;;9.00;7.25;;;;;-146.03;100.00;60875.16;5014035;28;45439;-89
2022/03/13 04:29:30;;;;;;;;;8.00;8.00;;;;;-146.03;100.00;60875.16;5013916;28;48865;-89
2022/03/13 04:31:57;;;;;;;;;7.00;5.00;;;;;-146.03;100.00;60875.16;5008521;28;45556;-90
2022/03/13 04:34:22;;;;;;;;;4.50;4.50;;;;;-146.03;100.00;60875.16;5010827;28;45615;-88
2022/03/13 04:36:48;;;;;;;;;7.50;7.00;;;;;-146.03;100.00;60875.16;5014209;28;45501;-90
2022/03/13 04:39:14;;;;;;;;;5.00;5.00;;;;;-146.03;100.00;60875.16;5020166;28;46416;-89
2022/03/13 04:41:41;;;;;;;;;5.50;5.50;;;;;-146.03;100.00;60875.16;5013503;28;45494;-88
2022/03/13 04:44:08;;;;;;;;;8.00;5.25;;;;;-146.03;100.00;60875.16;5009885;28;45508;-90
2022/03/13 04:46:35;;;;;;;;;4.25;4.25;;;;;-146.03;100.00;60875.16;5011728;28;46626;-90
2022/03/13 04:49:00;;;;;;;;;5.75;4.25;;;;;-146.03;100.00;60875.16;5015478;28;45411;-90
2022/03/13 04:51:25;;;;;;;;;4.25;4.25;;;;;-146.03;100.00;60875.16;5015218;28;45384;-90
2022/03/13 04:53:51;;;;;;;;;6.25;6.00;;;;;-146.03;100.00;60875.16;5009408;28;45375;-91
2022/03/13 04:56:17;;;;;;;;;5.25;5.25;;;;;-146.03;100.00;60875.16;5024418;28;45680;-90
2022/03/13 04:58:42;;;;;;;;;6.00;4.50;;;;;-146.03;100.00;60875.16;5009694;28;45410;-90
2022/03/13 05:01:08;;;;;;;;;7.00;5.75;;;;;-146.03;100.00;60875.16;5013635;28;45227;-91
2022/03/13 05:03:34;;;;;;;;;3.50;3.50;;;;;-146.03;100.00;60875.16;5017633;28;45409;-90
2022/03/13 05:06:06;;;;;;;;;5.00;4.00;;;;;-146.03;100.00;60875.16;5017937;28;49044;-90
2022/03/13 05:08:34;;;;;;;;;7.00;5.25;;;;;-146.03;100.00;60875.16;5002120;28;45478;-90
2022/03/13 05:11:00;;;;;;;;;5.25;4.50;;;;;-146.03;100.00;60875.16;4998015;28;45391;-90
2022/03/13 05:13:26;;;;;;;;;5.25;3.25;;;;;-146.03;100.00;60875.16;4998396;28;45534;-91
2022/03/13 05:15:52;;;;;;;;;4.00;4.00;;;;;-146.03;100.00;60875.16;5016179;28;45546;-92
2022/03/13 05:18:18;;;;;;;;;6.00;4.50;;;;;-146.03;100.00;60875.16;5016220;28;46187;-91
2022/03/13 05:20:44;;;;;;;;;5.75;4.75;;;;;-146.03;100.00;60875.16;5015393;28;45451;-91
2022/03/13 05:23:10;;;;;;;;;5.50;4.50;;;;;-146.03;100.00;60875.16;5016495;28;45335;-89
2022/03/13 05:25:37;;;;;;;;;4.50;4.50;;;;;-146.03;100.00;60875.16;5016370;28;45275;-87
2022/03/13 05:28:04;;;;;;;;;5.50;4.25;;;;;-146.03;100.00;60875.16;5015831;28;45947;-89
2022/03/13 05:30:29;;;;;;;;;4.00;4.00;;;;;-146.03;100.00;60875.16;5015822;28;45496;-90
2022/03/13 05:32:55;;;;;;;;;4.25;4.25;;;;;-146.03;100.00;60875.16;5016089;28;45557;-89
2022/03/13 05:35:21;;;;;;;;;2.25;2.25;;;;;-146.03;100.00;60875.16;5016057;28;45356;-90
2022/03/13 05:37:47;;;;;;;;;3.00;3.00;;;;;-146.03;100.00;60875.16;5016391;28;46491;-89
2022/03/13 05:40:14;;;;;;;;;6.00;5.00;;;;;-146.03;100.00;60875.16;5015418;28;45482;-90
2022/03/13 05:42:44;;;;;;;;;5.75;5.00;;;;;-146.03;100.00;60875.16;5015916;28;45526;-89
2022/03/13 05:45:11;;;;;;;;;3.00;3.00;;;;;-146.03;100.00;60875.16;5015646;28;45452;-89
2022/03/13 05:47:53;;;;;;;;;4.50;4.50;;;;;-146.03;100.00;60875.16;5015842;28;45483;-89
2022/03/13 05:50:19;;;;;;;;;4.00;4.00;;;;;-146.03;100.00;60875.16;5015967;28;45666;-89
2022/03/13 05:52:46;;;;;;;;;2.25;2.25;;;;;-146.03;100.00;60875.16;5014128;28;46002;-89
2022/03/13 05:55:12;;;;;;;;;3.25;2.00;;;;;-146.03;100.00;60875.16;5015770;28;45634;-89
2022/03/13 05:57:38;;;;;;;;;4.25;3.25;;;;;-146.03;100.00;60875.16;5015431;28;46712;-90
2022/03/13 06:00:06;;;;;;;;;3.00;3.00;;;;;-146.03;100.00;60875.16;5015578;28;45328;-89
2022/03/13 06:02:32;;;;;;;;;4.25;4.25;;;;;-146.03;100.00;60875.16;5015831;28;45311;-89
2022/03/13 06:04:57;;;;;;;;;4.25;4.25;;;;;-146.03;100.00;60875.16;5016526;28;45351;-89
2022/03/13 06:07:23;;;;;;;;;5.00;4.00;;;;;-146.03;100.00;60875.16;5015974;28;46105;-90
2022/03/13 06:09:51;;;;;;;;;3.25;3.25;;;;;-146.03;100.00;60875.16;5025147;28;45491;-90
2022/03/13 06:12:17;;;;;;;;;2.00;2.00;;;;;-146.03;100.00;60875.16;5029697;28;45300;-89
2022/03/13 06:14:43;;;;;;;;;2.75;2.75;;;;;-146.03;100.00;60875.16;5029538;28;44998;-89
2022/03/13 06:17:08;;;;;;;;;3.00;3.00;;;;;-146.03;100.00;60875.16;5026673;28;45338;-90
2022/03/13 06:19:34;;;;;;;;;5.75;4.75;;;;;-146.03;100.00;60875.16;5019673;28;45315;-91
2022/03/13 06:21:59;;;;;;;;;6.00;5.25;;;;;-146.03;100.00;60875.16;5014869;28;45935;-90
2022/03/13 06:24:25;;;;;;;;;5.50;4.00;;;;;-146.03;100.00;60875.16;5015354;28;45544;-90
2022/03/13 06:26:50;;;;;;;;;5.75;3.75;;;;;-146.03;100.00;60875.16;5015322;28;45559;-89
2022/03/13 06:29:16;;;;;;;;;5.00;3.25;;;;;-146.03;100.00;60875.16;5015002;28;45611;-90
2022/03/13 06:31:41;;;;;;;;;4.75;4.75;;;;;-146.03;100.00;60875.16;5014968;28;45481;-90
2022/03/13 06:34:07;;;;;;;;;3.00;3.00;;;;;-146.03;100.00;60875.16;5015066;28;45647;-91
2022/03/13 06:36:34;;;;;;;;;5.00;5.00;;;;;-146.03;100.00;60875.16;5014507;28;47188;-92
2022/03/13 06:38:59;;;;;;;;;4.00;4.00;;;;;-146.03;100.00;60875.16;5015100;28;45410;-91
2022/03/13 06:41:26;;;;;;;;;4.00;3.00;;;;;-146.03;100.00;60875.16;5015006;28;45410;-91
2022/03/13 06:43:51;;;;;;;;;3.00;3.00;;;;;-146.03;100.00;60875.16;5015598;28;45451;-90
2022/03/13 06:46:16;;;;;;;;;3.00;3.00;;;;;-146.03;100.00;60875.16;5014809;28;45398;-89
2022/03/13 06:48:42;;;;;;;;;4.00;3.75;;;;;-146.03;100.00;60875.16;5014744;28;45458;-89
2022/03/13 06:51:07;;;;;;;;;2.00;2.00;;;;;-146.03;100.00;60875.16;5014662;28;45442;-90
2022/03/13 06:53:35;;;;;;;;;4.00;4.00;;;;;-146.03;100.00;60875.16;5015076;28;45494;-90
2022/03/13 06:56:01;;;;;;;;;5.00;4.00;;;;;-146.03;100.00;60875.16;5014826;28;45390;-89
2022/03/13 06:58:26;;;;;;;;;2.75;1.75;;;;;-146.03;100.00;60875.16;5014549;28;45797;-90
2022/03/13 07:00:52;;;;;;;;;0.50;0.50;;;;;-146.03;100.00;60875.16;5014276;28;45312;-87
2022/03/13 07:03:17;;;;;;;;;3.00;3.00;;;;;-146.03;100.00;60875.16;5013885;28;45521;-88
2022/03/13 07:05:43;;;;;;;;;4.00;4.00;;;;;-146.03;100.00;60875.16;5014132;28;45341;-87
2022/03/13 07:08:08;;;;;;;;;2.00;2.00;;;;;-146.03;100.00;60875.16;5014900;28;45223;-87
2022/03/13 07:10:34;;;;;;;;;2.75;2.75;;;;;-146.03;100.00;60875.16;4999339;28;45697;-88
2022/03/13 07:12:59;;;;;;;;;3.75;3.25;;;;;-146.03;100.00;60875.16;5012934;28;45517;-87
2022/03/13 07:15:26;;;;;;;;;3.75;3.00;;;;;-146.03;100.00;60875.16;5013676;28;48188;-90
2022/03/13 07:17:52;;;;;;;;;2.50;2.50;;;;;-146.03;100.00;60875.16;5010643;28;45465;-85
2022/03/13 07:20:17;;;;;;;;;3.00;3.00;;;;;-146.03;100.00;60875.16;5014543;28;45431;-89
2022/03/13 07:22:45;;;;;;;;;3.00;3.00;;;;;-146.03;100.00;60875.16;5014766;28;45553;-82
2022/03/13 07:25:11;;;;;;;;;3.75;3.75;;;;;-146.03;100.00;60875.16;5013902;28;46696;-81
2022/03/13 07:27:39;;;;;;;;;1.75;1.75;;;;;-146.03;100.00;60875.16;4994738;28;45450;-81
2022/03/13 07:30:12;;;;;;;;;4.50;3.00;;;;;-146.03;100.00;60875.16;5014062;28;45442;-81
2022/03/13 07:32:38;;;;;;;;;4.00;4.00;;;;;-146.03;100.00;60875.16;5012223;28;45229;-80
2022/03/13 07:35:04;;;;;;;;;2.00;2.00;;;;;-146.03;100.00;60875.16;4995907;28;47353;-80
2022/03/13 07:37:29;;;;;;;;;4.50;4.50;;;;;-146.03;100.00;60875.16;5014151;28;45574;-80
2022/03/13 07:39:55;;;;;;;;;2.50;2.50;;;;;-146.03;100.00;60875.16;5014065;28;45434;-80
2022/03/13 07:42:20;;;;;;;;;3.25;3.25;;;;;-146.03;100.00;60875.16;5014098;28;45406;-81
2022/03/13 07:44:46;;;;;;;;;3.50;3.50;;;;;-146.03;100.00;60875.16;5015234;28;45730;-79
2022/03/13 07:47:11;;;;;;;;;3.50;3.50;;;;;-146.03;100.00;60875.16;5017962;28;45559;-79
2022/03/13 07:49:37;;;;;;;;;4.00;4.00;;;;;-146.03;100.00;60875.16;5017071;28;45734;-80
2022/03/13 07:52:03;;;;;;;;;3.75;3.75;;;;;-146.03;100.00;60875.16;5016741;28;45834;-81
2022/03/13 07:54:28;;;;;;;;;3.00;3.00;;;;;-146.03;100.00;60875.16;5016547;28;46134;-80
2022/03/13 07:56:54;;;;;;;;;3.00;3.00;;;;;-146.03;100.00;60875.16;5015315;28;50984;-81
2022/03/13 07:59:19;;;;;;;;;5.00;3.75;;;;;-146.03;100.00;60875.16;5016619;28;45555;-79
2022/03/13 08:01:44;;;;;;;;;4.00;4.00;;;;;-146.03;100.00;60875.16;5017339;28;45446;-81
2022/03/13 08:04:10;;;;;;;;;3.25;3.25;;;;;-146.03;100.00;60875.16;5016052;28;45870;-80
2022/03/13 08:06:36;;;;;;;;;5.00;4.00;;;;;-146.03;100.00;60875.16;5016440;28;45960;-80
2022/03/13 08:09:03;;;;;;;;;3.50;3.25;;;;;-146.03;100.00;60875.16;5016687;28;45544;-79
2022/03/13 08:11:29;;;;;;;;;2.00;2.00;;;;;-146.03;100.00;60875.16;5016558;28;45693;-82
2022/03/13 08:13:55;;;;;;;;;2.00;2.00;;;;;-146.03;100.00;60875.16;5017010;28;46289;-79
2022/03/13 08:16:20;;;;;;;;;3.50;3.50;;;;;-146.03;100.00;60875.16;5016100;28;45517;-80
2022/03/13 08:18:45;;;;;;;;;2.50;2.50;;;;;-146.03;100.00;60875.16;5016363;28;45404;-80
2022/03/13 08:21:12;;;;;;;;;5.75;5.50;;;;;-146.03;100.00;60875.16;4998050;28;45502;-80
2022/03/13 08:23:37;;;;;;;;;1.50;1.50;;;;;-146.03;100.00;60875.16;5016840;28;46212;-80
2022/03/13 08:26:03;;;;;;;;;3.00;3.00;;;;;-146.03;100.00;60875.16;5017142;28;48276;-80
2022/03/13 08:28:28;;;;;;;;;2.50;2.50;;;;;-146.03;100.00;60875.16;4998232;28;45533;-79
2022/03/13 08:30:53;;;;;;;;;3.00;3.00;;;;;-146.03;100.00;60875.16;5016422;28;45457;-78
2022/03/13 08:33:19;;;;;;;;;3.00;3.00;;;;;-146.03;100.00;60875.16;5014854;28;59717;-80
2022/03/13 08:35:44;;;;;;;;;3.00;3.00;;;;;-146.03;100.00;60875.16;5015996;28;45428;-79
2022/03/13 08:38:10;;;;;;;;;2.25;2.25;;;;;-146.03;100.00;60875.16;5016129;28;45280;-80
2022/03/13 08:40:36;;;;;;;;;2.00;2.00;;;;;-146.03;100.00;60875.16;5015858;28;45525;-80
2022/03/13 08:43:01;;;;;;;;;2.00;2.00;;;;;-146.03;100.00;60875.16;5015792;28;45521;-79
2022/03/13 08:45:26;;;;;;;;;2.00;1.75;;;;;-146.03;100.00;60875.16;5016086;28;45280;-82
2022/03/13 08:47:52;;;;;;;;;3.50;3.00;;;;;-146.03;100.00;60875.16;4997583;28;45564;-82
2022/03/13 08:50:17;;;;;;;;;2.25;2.25;;;;;-146.03;100.00;60875.16;4998064;28;45514;-82
2022/03/13 08:52:43;;;;;;;;;3.75;3.00;;;;;-146.03;100.00;60875.16;5015923;28;45460;-82
2022/03/13 08:55:13;;;;;;;;;2.75;2.75;;;;;-146.03;100.00;60875.16;5014754;28;45462;-80
2022/03/13 08:57:42;;;;;;;;;1.00;1.00;;;;;-146.03;100.00;60875.16;5015741;28;45573;-81
2022/03/13 09:00:10;;;;;;;;;2.25;2.00;;;;;-146.03;100.00;60875.16;4998070;28;45420;-81
2022/03/13 09:02:36;;;;;;;;;2.00;2.00;;;;;-146.03;100.00;60875.16;5015553;28;46182;-81
2022/03/13 09:05:01;;;;;;;;;2.75;2.25;;;;;-146.03;100.00;60875.16;5015937;28;45514;-81
2022/03/13 09:07:26;;;;;;;;;2.25;2.00;;;;;-146.03;100.00;60875.16;5014576;28;45478;-81
2022/03/13 09:09:52;;;;;;;;;1.75;1.00;;;;;-146.03;100.00;60875.16;5014925;28;45585;-82
2022/03/13 09:12:17;;;;;;;;;1.00;1.00;;;;;-146.03;100.00;60875.16;5015267;28;46060;-82
2022/03/13 09:14:42;;;;;;;;;2.50;0.75;;;;;-146.03;100.00;60875.16;4997258;28;45686;-81
2022/03/13 09:17:08;;;;;;;;;1.00;1.00;;;;;-146.03;100.00;60875.16;5015105;28;45696;-81
2022/03/13 09:19:34;;;;;;;;;1.00;1.00;;;;;-146.03;100.00;60875.16;5016167;28;45580;-81
2022/03/13 09:21:59;;;;;;;;;1.00;1.00;;;;;-146.03;100.00;60875.16;5015464;28;45452;-81
2022/03/13 09:24:25;;;;;;;;;2.75;1.25;;;;;-146.03;100.00;60875.16;4997943;28;45432;-81
2022/03/13 09:26:51;;;;;;;;;2.00;2.00;;;;;-146.03;100.00;60875.16;5016238;28;45410;-81
2022/03/13 09:29:16;;;;;;;;;1.00;1.00;;;;;-146.03;100.00;60875.16;4998034;28;45297;-82
2022/03/13 09:31:41;;;;;;;;;1.50;1.50;;;;;-146.03;100.00;60875.16;5015622;28;45993;-82
2022/03/13 09:34:07;;;;;;;;;1.50;1.25;;;;;-146.03;100.00;60875.16;5015678;28;45402;-81
2022/03/13 09:36:36;;;;;;;;;1.50;1.50;;;;;-146.03;100.00;60875.16;5015758;28;45509;-82
2022/03/13 09:39:05;;;;;;;;;1.75;1.00;;;;;-146.03;100.00;60875.16;5015831;28;45410;-81
2022/03/13 09:41:31;;;;;;;;;1.75;1.75;;;;;-146.03;100.00;60875.16;5015499;28;45734;-81
2022/03/13 09:43:56;;;;;;;;;2.75;1.00;;;;;-146.03;100.00;60875.16;5016101;28;45402;-82
2022/03/13 09:46:22;;;;;;;;;0.75;0.75;;;;;-146.03;100.00;60875.16;5013874;28;45394;-81
2022/03/13 09:48:52;;;;;;;;;2.00;2.00;;;;;-146.03;100.00;60875.16;5014133;28;45402;-81
2022/03/13 09:51:18;;;;;;;;;1.00;1.00;;;;;-146.03;100.00;60875.16;5013969;28;46372;-81
2022/03/13 09:53:43;;;;;;;;;3.00;1.00;;;;;-146.03;100.00;60875.16;5014211;28;45769;-81
2022/03/13 09:56:09;;;;;;;;;1.00;1.00;;;;;-146.03;100.00;60875.16;5014170;28;45424;-81
2022/03/13 09:58:34;;;;;;;;;0.75;0.75;;;;;-146.03;100.00;60875.16;5012719;28;45513;-81
2022/03/13 10:01:00;;;;;;;;;2.75;2.75;;;;;-146.03;100.00;60875.16;5013094;28;45699;-81
2022/03/13 10:03:26;;;;;;;;;1.75;1.75;;;;;-146.03;100.00;60875.16;4994785;28;45820;-81
2022/03/13 10:05:54;;;;;;;;;1.00;1.00;;;;;-146.03;100.00;60875.16;5013080;28;45525;-81
2022/03/13 10:08:26;;;;;;;;;1.00;1.00;;;;;-146.03;100.00;60875.16;5013028;28;45513;-81
2022/03/13 10:10:53;;;;;;;;;2.00;2.00;;;;;-146.03;100.00;60875.16;5013235;28;45349;-81
2022/03/13 10:13:46;;;;;;;;;1.00;1.00;;;;;-146.03;100.00;60875.16;5013791;28;46098;-81
2022/03/13 10:16:20;;;;;;;;;1.75;1.75;;;;;-146.03;100.00;60875.16;5013177;28;45363;-82
2022/03/13 10:18:46;;;;;;;;;3.00;1.50;;;;;-146.03;100.00;60875.16;5013151;28;45315;-81
2022/03/13 10:21:16;;;;;;;;;2.00;2.00;;;;;-146.03;100.00;60875.16;5012566;28;45900;-81
2022/03/13 10:23:42;;;;;;;;;1.00;1.00;;;;;-146.03;100.00;60875.16;5012991;28;45501;-81
2022/03/13 10:26:08;;;;;;;;;2.00;2.00;;;;;-146.03;100.00;60875.16;5013403;28;45534;-81
2022/03/13 10:28:36;;;;;;;;;2.00;0.25;;;;;-146.03;100.00;60875.16;5012647;28;45518;-81
2022/03/13 10:31:01;;;;;;;;;2.00;2.00;;;;;-146.03;100.00;60875.16;5012668;28;46052;-81
2022/03/13 10:33:35;;;;;;;;;1.00;1.00;;;;;-146.03;100.00;60875.16;5012891;28;45414;-81
2022/03/13 10:36:13;;;;;;;;;1.25;1.25;;;;;-146.03;100.00;60875.16;5012969;28;45534;-81
2022/03/13 10:38:39;;;;;;;;;0.75;0.75;;;;;-146.03;100.00;60875.16;4998082;28;45367;-81
2022/03/13 10:41:08;;;;;;;;;3.00;3.00;;;;;-146.03;100.00;60875.16;5013494;28;45447;-81
2022/03/13 10:43:35;;;;;;;;;3.00;2.00;;;;;-146.03;100.00;60875.16;5013012;28;45525;-81
2022/03/13 10:46:01;;;;;;;;;1.00;1.00;;;;;-146.03;100.00;60875.16;4974079;28;1132057;-81
2022/03/13 10:48:36;;;;;;;;;2.00;2.00;;;;;-146.03;100.00;60875.16;5014259;28;45463;-81
2022/03/13 10:51:12;;;;;;;;;1.00;1.00;;;;;-146.03;100.00;60875.16;5013512;28;47576;-81
2022/03/13 10:53:41;;;;;;;;;2.00;2.00;;;;;-146.03;100.00;60875.16;4999003;28;47913;-81
2022/03/13 10:56:15;;;;;;;;;1.00;1.00;;;;;-146.03;100.00;60875.16;4995762;28;45477;-81
2022/03/13 10:58:48;;;;;;;;;3.50;3.50;;;;;-146.03;100.00;60875.16;4996125;28;45582;-81
2022/03/13 11:01:19;;;;;;;;;3.00;2.00;;;;;-146.03;100.00;60875.16;5013880;28;45530;-81
2022/03/13 11:03:51;;;;;;;;;5.75;3.00;;;;;-146.03;100.00;60875.16;4994296;28;45565;-81
2022/03/13 11:06:16;;;;;;;;;2.50;2.50;;;;;-146.03;100.00;60875.16;5014157;28;45438;-81
2022/03/13 11:08:42;;;;;;;;;3.25;2.75;;;;;-146.03;100.00;60875.16;5014096;28;45547;-81